Time;durP1;ratioP1;P1;durP2;ratioP2;P2;SDS_P1;SDS_P2;PMS_P1;PMS_P2;Temp;Humidity;BMP_temperature;BMP_pressure;BME280_temperature;BME280_humidity;BME280_pressure;Samples;Min_cycle;Max_cycle;Signal;HPM_P1;HPM_P2
2023/03/27 00:01:10;;;;;;;16.17;3.40;;;;;;;;;;5075159;28;20055;-62
2023/03/27 00:03:36;;;;;;;14.50;3.95;;;;;;;;;;5074454;28;20029;-62
2023/03/27 00:06:08;;;;;;;17.65;3.25;;;;;;;;;;5073502;28;20012;-61
2023/03/27 00:08:33;;;;;;;15.50;3.38;;;;;;;;;;5074170;28;20031;-62
2023/03/27 00:11:00;;;;;;;13.43;3.35;;;;;;;;;;5076627;28;20035;-60
2023/03/27 00:13:26;;;;;;;6.35;2.72;;;;;;;;;;5094258;28;20116;-60
2023/03/27 00:15:52;;;;;;;8.60;3.33;;;;;;;;;;5077596;28;20056;-60
2023/03/27 00:18:18;;;;;;;10.95;3.50;;;;;;;;;;5073571;28;20020;-60
2023/03/27 00:20:43;;;;;;;9.50;3.58;;;;;;;;;;5073701;28;20023;-60
2023/03/27 00:23:08;;;;;;;13.73;3.45;;;;;;;;;;5065670;28;20347;-60
2023/03/27 00:25:34;;;;;;;9.43;2.83;;;;;;;;;;5077605;28;20025;-60
2023/03/27 00:28:01;;;;;;;10.02;3.45;;;;;;;;;;5073959;28;20020;-60
2023/03/27 00:30:27;;;;;;;8.02;2.92;;;;;;;;;;5076502;28;20094;-60
2023/03/27 00:32:56;;;;;;;8.40;2.53;;;;;;;;;;5083526;28;20025;-60
2023/03/27 00:35:22;;;;;;;14.75;3.15;;;;;;;;;;5074130;28;20024;-61
2023/03/27 00:37:47;;;;;;;13.38;3.58;;;;;;;;;;5073352;28;20475;-61
2023/03/27 00:40:16;;;;;;;10.07;2.92;;;;;;;;;;5074847;28;20059;-61
2023/03/27 00:42:42;;;;;;;11.88;3.30;;;;;;;;;;5081083;28;20021;-60
2023/03/27 00:45:14;;;;;;;11.27;3.33;;;;;;;;;;5073459;28;20070;-60
2023/03/27 00:47:39;;;;;;;11.27;3.25;;;;;;;;;;5072922;28;20107;-60
2023/03/27 00:50:15;;;;;;;9.95;3.25;;;;;;;;;;5073168;28;20534;-61
2023/03/27 00:52:43;;;;;;;12.68;2.50;;;;;;;;;;5073662;28;20506;-60
2023/03/27 00:55:13;;;;;;;6.70;2.72;;;;;;;;;;5073332;28;20531;-60
2023/03/27 00:57:38;;;;;;;11.93;3.13;;;;;;;;;;5073471;28;20020;-60
2023/03/27 01:00:11;;;;;;;11.15;3.50;;;;;;;;;;5073561;28;20029;-60
2023/03/27 01:02:37;;;;;;;9.68;2.75;;;;;;;;;;5073126;28;20162;-60
2023/03/27 01:05:03;;;;;;;9.18;3.05;;;;;;;;;;5073264;28;20111;-60
2023/03/27 01:07:29;;;;;;;13.45;3.20;;;;;;;;;;5072709;28;20028;-60
2023/03/27 01:09:55;;;;;;;14.68;3.38;;;;;;;;;;5073267;28;20025;-60
2023/03/27 01:12:35;;;;;;;16.20;3.22;;;;;;;;;;5073156;28;20631;-60
2023/03/27 01:15:19;;;;;;;14.60;3.00;;;;;;;;;;5072445;28;20024;-60
2023/03/27 01:18:14;;;;;;;9.52;2.97;;;;;;;;;;5072729;28;20446;-60
2023/03/27 01:20:41;;;;;;;;;;;;;;;;;;5059653;28;21278;-60
2023/03/27 01:23:25;;;;;;;17.17;3.45;;;;;;;;;;5082336;28;19962;-60
2023/03/27 01:25:50;;;;;;;20.67;3.20;;;;;;;;;;5072979;28;20104;-60
2023/03/27 01:28:18;;;;;;;16.15;3.85;;;;;;;;;;5072625;28;20135;-60
2023/03/27 01:30:47;;;;;;;13.93;3.40;;;;;;;;;;5072695;28;20510;-60
2023/03/27 01:33:13;;;;;;;11.73;3.95;;;;;;;;;;5072304;28;20123;-60
2023/03/27 01:35:47;;;;;;;8.77;3.88;;;;;;;;;;5081747;28;20138;-61
2023/03/27 01:38:31;;;;;;;8.75;2.97;;;;;;;;;;5086244;28;20398;-60
2023/03/27 01:41:02;;;;;;;14.68;3.72;;;;;;;;;;5072860;28;20016;-60
2023/03/27 01:43:35;;;;;;;11.38;3.80;;;;;;;;;;5072463;28;20032;-60
2023/03/27 01:46:05;;;;;;;11.23;3.53;;;;;;;;;;5072758;28;20020;-60
2023/03/27 01:48:34;;;;;;;10.43;3.22;;;;;;;;;;5086186;28;20043;-60
2023/03/27 01:51:06;;;;;;;9.75;3.53;;;;;;;;;;5072439;28;20070;-60
2023/03/27 01:53:36;;;;;;;5.25;3.22;;;;;;;;;;5072195;28;20036;-60
2023/03/27 01:56:25;;;;;;;8.45;3.40;;;;;;;;;;5073104;28;20390;-60
2023/03/27 01:58:53;;;;;;;15.85;3.97;;;;;;;;;;5071904;28;20048;-60
2023/03/27 02:01:21;;;;;;;11.23;4.13;;;;;;;;;;5072101;28;20505;-61
2023/03/27 02:03:49;;;;;;;10.43;3.85;;;;;;;;;;5078766;28;20458;-61
2023/03/27 02:06:20;;;;;;;8.60;3.38;;;;;;;;;;5072359;28;20029;-60
2023/03/27 02:09:04;;;;;;;16.40;4.43;;;;;;;;;;5077225;28;20081;-61
2023/03/27 02:11:33;;;;;;;8.50;3.95;;;;;;;;;;5072154;28;20027;-60
2023/03/27 02:14:05;;;;;;;13.88;3.70;;;;;;;;;;5083960;28;20028;-60
2023/03/27 02:16:32;;;;;;;9.43;3.17;;;;;;;;;;5071807;28;20067;-60
2023/03/27 02:19:03;;;;;;;10.95;3.88;;;;;;;;;;5072204;28;20021;-60
2023/03/27 02:21:31;;;;;;;8.30;3.15;;;;;;;;;;5072180;28;20111;-60
2023/03/27 02:24:00;;;;;;;16.65;3.13;;;;;;;;;;5074099;28;20020;-60
2023/03/27 02:26:26;;;;;;;10.82;3.28;;;;;;;;;;5081829;28;20028;-60
2023/03/27 02:29:00;;;;;;;14.85;3.75;;;;;;;;;;5071859;28;20050;-60
2023/03/27 02:31:41;;;;;;;9.77;2.95;;;;;;;;;;5077623;28;20178;-60
2023/03/27 02:34:19;;;;;;;10.38;2.78;;;;;;;;;;5071768;28;20031;-61
2023/03/27 02:37:03;;;;;;;11.98;2.80;;;;;;;;;;5072861;28;20037;-60
2023/03/27 02:39:34;;;;;;;14.43;2.72;;;;;;;;;;5081497;28;20029;-60
2023/03/27 02:42:22;;;;;;;10.32;3.10;;;;;;;;;;5071304;28;20025;-60
2023/03/27 02:44:51;;;;;;;12.30;4.05;;;;;;;;;;5074475;28;20127;-60
2023/03/27 02:47:27;;;;;;;7.20;2.58;;;;;;;;;;5080217;28;20035;-60
2023/03/27 02:50:12;;;;;;;11.55;3.13;;;;;;;;;;5088825;28;20066;-60
2023/03/27 02:52:43;;;;;;;15.10;4.05;;;;;;;;;;5071029;28;20036;-60
2023/03/27 02:55:19;;;;;;;11.45;3.30;;;;;;;;;;5078234;28;20024;-60
2023/03/27 02:57:48;;;;;;;8.38;3.40;;;;;;;;;;5087378;28;20360;-60
2023/03/27 03:00:19;;;;;;;10.15;2.92;;;;;;;;;;5072358;28;20027;-60
2023/03/27 03:02:45;;;;;;;14.60;3.63;;;;;;;;;;5071595;28;20033;-60
2023/03/27 03:05:19;;;;;;;11.10;3.00;;;;;;;;;;5071262;28;20491;-60
2023/03/27 03:07:45;;;;;;;13.20;3.63;;;;;;;;;;5071874;28;20025;-60
2023/03/27 03:10:10;;;;;;;7.82;3.33;;;;;;;;;;5073524;28;20027;-61
2023/03/27 03:12:36;;;;;;;8.73;2.90;;;;;;;;;;5077398;28;20382;-60
2023/03/27 03:15:01;;;;;;;13.52;3.42;;;;;;;;;;5085491;28;20490;-61
2023/03/27 03:17:26;;;;;;;16.83;3.13;;;;;;;;;;5088150;28;20554;-60
2023/03/27 03:19:52;;;;;;;9.18;3.15;;;;;;;;;;5075273;28;20552;-60
2023/03/27 03:22:17;;;;;;;13.32;3.65;;;;;;;;;;5074628;28;20085;-61
2023/03/27 03:24:43;;;;;;;13.85;2.85;;;;;;;;;;5077068;28;20383;-61
2023/03/27 03:27:08;;;;;;;5.95;2.63;;;;;;;;;;5074885;28;20107;-60
2023/03/27 03:29:36;;;;;;;11.63;3.17;;;;;;;;;;5080072;28;20479;-60
2023/03/27 03:32:02;;;;;;;14.35;3.08;;;;;;;;;;5078241;28;20128;-60
2023/03/27 03:34:29;;;;;;;15.95;3.58;;;;;;;;;;5074652;28;20119;-60
2023/03/27 03:36:54;;;;;;;8.45;2.97;;;;;;;;;;5074389;28;20594;-61
2023/03/27 03:39:20;;;;;;;10.88;2.97;;;;;;;;;;5074427;28;20024;-60
2023/03/27 03:41:45;;;;;;;9.73;2.90;;;;;;;;;;5073392;28;20044;-61
2023/03/27 03:44:10;;;;;;;9.00;2.80;;;;;;;;;;5075567;28;20052;-60
2023/03/27 03:46:36;;;;;;;11.38;2.70;;;;;;;;;;5074510;28;20082;-60
2023/03/27 03:49:03;;;;;;;9.13;2.70;;;;;;;;;;5074219;28;20019;-60
2023/03/27 03:51:30;;;;;;;14.95;3.00;;;;;;;;;;5083248;28;20032;-60
2023/03/27 03:53:55;;;;;;;7.32;3.00;;;;;;;;;;5074416;28;20024;-60
2023/03/27 03:56:21;;;;;;;8.30;3.03;;;;;;;;;;5074796;28;20107;-60
2023/03/27 03:58:46;;;;;;;12.65;2.75;;;;;;;;;;5074369;28;20021;-60
2023/03/27 04:01:11;;;;;;;6.97;3.20;;;;;;;;;;5085870;28;20493;-60
2023/03/27 04:03:37;;;;;;;13.85;2.60;;;;;;;;;;5074750;28;20028;-60
2023/03/27 04:06:06;;;;;;;9.65;3.22;;;;;;;;;;5074347;28;20021;-60
2023/03/27 04:08:32;;;;;;;15.10;3.40;;;;;;;;;;5074285;28;20127;-60
2023/03/27 04:10:57;;;;;;;13.18;3.28;;;;;;;;;;5074511;28;20103;-60
2023/03/27 04:13:23;;;;;;;9.25;3.40;;;;;;;;;;5082227;28;20031;-60
2023/03/27 04:15:48;;;;;;;14.63;3.20;;;;;;;;;;5077760;28;20427;-60
2023/03/27 04:18:14;;;;;;;15.77;2.75;;;;;;;;;;5074016;28;20024;-60
2023/03/27 04:20:40;;;;;;;9.18;2.97;;;;;;;;;;5080999;28;20394;-60
2023/03/27 04:23:07;;;;;;;12.90;3.38;;;;;;;;;;5074070;28;20103;-61
2023/03/27 04:25:32;;;;;;;13.57;3.63;;;;;;;;;;5073589;28;20075;-60
2023/03/27 04:28:01;;;;;;;9.27;3.40;;;;;;;;;;5073710;28;20535;-60
2023/03/27 04:30:26;;;;;;;11.13;3.78;;;;;;;;;;5087748;28;20044;-60
2023/03/27 04:32:52;;;;;;;11.80;3.40;;;;;;;;;;5085020;28;20442;-60
2023/03/27 04:35:18;;;;;;;16.80;3.88;;;;;;;;;;5085571;28;20135;-60
2023/03/27 04:37:44;;;;;;;11.02;3.53;;;;;;;;;;5073687;28;20032;-60
2023/03/27 04:40:10;;;;;;;16.80;3.15;;;;;;;;;;5074958;28;20115;-60
2023/03/27 04:42:42;;;;;;;11.68;3.35;;;;;;;;;;5082952;28;20055;-60
2023/03/27 04:45:24;;;;;;;15.30;3.75;;;;;;;;;;5073165;28;20024;-60
2023/03/27 04:47:49;;;;;;;5.72;2.70;;;;;;;;;;5084026;28;20073;-60
2023/03/27 04:50:15;;;;;;;8.23;3.22;;;;;;;;;;5073824;28;20395;-60
2023/03/27 04:52:41;;;;;;;11.77;3.92;;;;;;;;;;5073479;28;20031;-60
2023/03/27 04:55:07;;;;;;;10.07;3.55;;;;;;;;;;5055554;28;20137;-60
2023/03/27 04:57:32;;;;;;;15.25;4.22;;;;;;;;;;5073471;28;20060;-60
2023/03/27 04:59:58;;;;;;;8.82;3.15;;;;;;;;;;5073183;28;20054;-60
2023/03/27 05:02:25;;;;;;;9.63;3.67;;;;;;;;;;5084763;28;20039;-60
2023/03/27 05:04:50;;;;;;;11.57;4.15;;;;;;;;;;5074608;28;20017;-61
2023/03/27 05:07:16;;;;;;;10.63;3.22;;;;;;;;;;5073107;28;20024;-60
2023/03/27 05:09:41;;;;;;;7.72;3.03;;;;;;;;;;5072998;28;20518;-60
2023/03/27 05:12:06;;;;;;;8.45;3.28;;;;;;;;;;5073212;28;20025;-60
2023/03/27 05:14:31;;;;;;;10.15;3.78;;;;;;;;;;5073040;28;20425;-60
2023/03/27 05:16:59;;;;;;;8.98;3.30;;;;;;;;;;5072558;28;20036;-60
2023/03/27 05:19:25;;;;;;;6.97;3.03;;;;;;;;;;5073365;28;20115;-61
2023/03/27 05:21:51;;;;;;;10.73;3.95;;;;;;;;;;5073016;28;20113;-60
2023/03/27 05:24:17;;;;;;;8.32;3.00;;;;;;;;;;5072617;28;20020;-60
2023/03/27 05:26:42;;;;;;;8.20;3.20;;;;;;;;;;5073073;28;20031;-60
2023/03/27 05:29:07;;;;;;;8.43;3.25;;;;;;;;;;5073230;28;20391;-61
2023/03/27 05:31:33;;;;;;;15.93;3.58;;;;;;;;;;5072806;28;20024;-60
2023/03/27 05:33:59;;;;;;;6.53;3.00;;;;;;;;;;5071849;28;20028;-60
2023/03/27 05:36:26;;;;;;;10.82;3.20;;;;;;;;;;5072989;28;20029;-61
2023/03/27 05:38:52;;;;;;;10.93;3.08;;;;;;;;;;5072489;28;20027;-60
2023/03/27 05:41:18;;;;;;;13.75;3.92;;;;;;;;;;5072922;28;20070;-61
2023/03/27 05:43:44;;;;;;;7.22;3.00;;;;;;;;;;5078387;28;20023;-61
2023/03/27 05:46:09;;;;;;;5.78;2.92;;;;;;;;;;5080137;28;20031;-61
2023/03/27 05:48:34;;;;;;;8.30;2.90;;;;;;;;;;5072322;28;20025;-61
2023/03/27 05:51:00;;;;;;;15.27;3.17;;;;;;;;;;5072283;28;20024;-60
2023/03/27 05:53:25;;;;;;;9.63;3.25;;;;;;;;;;5072754;28;20039;-60
2023/03/27 05:55:51;;;;;;;7.57;3.00;;;;;;;;;;5072185;28;20031;-60
2023/03/27 05:58:16;;;;;;;10.70;2.97;;;;;;;;;;5072099;28;20029;-61
2023/03/27 06:00:42;;;;;;;12.73;2.72;;;;;;;;;;5072186;28;20021;-60
2023/03/27 06:03:09;;;;;;;8.43;2.75;;;;;;;;;;5072835;28;20024;-60
2023/03/27 06:05:34;;;;;;;10.70;3.22;;;;;;;;;;5072789;28;20026;-60
2023/03/27 06:08:01;;;;;;;10.82;2.70;;;;;;;;;;5072525;28;20024;-60
2023/03/27 06:10:27;;;;;;;6.82;2.50;;;;;;;;;;5076998;28;20070;-60
2023/03/27 06:12:59;;;;;;;6.35;2.60;;;;;;;;;;5072215;28;20371;-60
2023/03/27 06:15:24;;;;;;;7.70;3.13;;;;;;;;;;5072452;28;20048;-60
2023/03/27 06:17:49;;;;;;;13.80;3.50;;;;;;;;;;5072171;28;20028;-60
2023/03/27 06:20:15;;;;;;;9.00;3.00;;;;;;;;;;5072377;28;20386;-60
2023/03/27 06:22:44;;;;;;;9.52;3.90;;;;;;;;;;5073507;28;20474;-60
2023/03/27 06:25:10;;;;;;;6.93;2.90;;;;;;;;;;5071172;28;20058;-60
2023/03/27 06:27:36;;;;;;;9.52;3.13;;;;;;;;;;5074344;28;20020;-61
2023/03/27 06:30:01;;;;;;;8.25;3.63;;;;;;;;;;5071842;28;20098;-60
2023/03/27 06:32:26;;;;;;;8.00;3.22;;;;;;;;;;5071903;28;20468;-60
2023/03/27 06:34:52;;;;;;;7.40;2.90;;;;;;;;;;5068827;28;20066;-60
2023/03/27 06:37:18;;;;;;;9.77;3.28;;;;;;;;;;5075568;28;20021;-60
2023/03/27 06:39:44;;;;;;;14.93;3.35;;;;;;;;;;5071604;28;20493;-60
2023/03/27 06:42:09;;;;;;;5.03;2.53;;;;;;;;;;5070436;28;20090;-60
2023/03/27 06:44:35;;;;;;;7.88;3.15;;;;;;;;;;5071528;28;20037;-60
2023/03/27 06:47:00;;;;;;;8.50;2.47;;;;;;;;;;5075333;28;20020;-60
2023/03/27 06:49:26;;;;;;;10.55;2.92;;;;;;;;;;5075463;28;20028;-61
2023/03/27 06:51:51;;;;;;;5.82;3.10;;;;;;;;;;5074532;28;20420;-60
2023/03/27 06:54:16;;;;;;;11.63;3.38;;;;;;;;;;5075065;28;20032;-60
2023/03/27 06:56:43;;;;;;;7.18;3.17;;;;;;;;;;5088412;28;20027;-61
2023/03/27 06:59:08;;;;;;;15.20;3.53;;;;;;;;;;5075204;28;20052;-61
2023/03/27 07:01:34;;;;;;;6.95;2.97;;;;;;;;;;5087891;28;20059;-60
2023/03/27 07:03:59;;;;;;;8.02;3.78;;;;;;;;;;5081222;28;20038;-60
2023/03/27 07:06:24;;;;;;;7.80;3.22;;;;;;;;;;5088228;28;20031;-61
2023/03/27 07:08:50;;;;;;;11.32;3.72;;;;;;;;;;5074905;28;20027;-61
2023/03/27 07:11:15;;;;;;;8.77;3.35;;;;;;;;;;5074434;28;20074;-61
2023/03/27 07:13:41;;;;;;;6.25;2.90;;;;;;;;;;5086321;28;20072;-60
2023/03/27 07:16:06;;;;;;;15.13;3.45;;;;;;;;;;5071285;28;20433;-60
2023/03/27 07:18:32;;;;;;;11.48;3.10;;;;;;;;;;5046153;28;20020;-61
2023/03/27 07:20:57;;;;;;;11.48;3.13;;;;;;;;;;5033211;28;20029;-60
2023/03/27 07:23:22;;;;;;;15.23;3.08;;;;;;;;;;5044462;28;21210;-60
2023/03/27 07:25:48;;;;;;;6.63;2.42;;;;;;;;;;5044542;28;20020;-60
2023/03/27 07:28:15;;;;;;;7.05;2.55;;;;;;;;;;5053363;28;20027;-60
2023/03/27 07:31:06;;;;;;;10.98;3.03;;;;;;;;;;5063109;28;20522;-60
2023/03/27 07:33:31;;;;;;;5.07;2.55;;;;;;;;;;5078882;28;20102;-60
2023/03/27 07:35:56;;;;;;;8.77;2.65;;;;;;;;;;5073867;28;20036;-60
2023/03/27 07:38:21;;;;;;;5.05;2.50;;;;;;;;;;5075275;28;20035;-61
2023/03/27 07:40:48;;;;;;;8.23;2.50;;;;;;;;;;5073039;28;20475;-62
2023/03/27 07:43:14;;;;;;;8.27;2.83;;;;;;;;;;5073305;28;20056;-62
2023/03/27 07:45:40;;;;;;;5.32;2.55;;;;;;;;;;5088545;28;20070;-61
2023/03/27 07:48:07;;;;;;;5.82;1.88;;;;;;;;;;5074104;28;20082;-61
2023/03/27 07:50:32;;;;;;;9.95;2.85;;;;;;;;;;5067742;28;20430;-61
2023/03/27 07:52:57;;;;;;;7.18;2.53;;;;;;;;;;5071905;28;20031;-60
2023/03/27 07:55:23;;;;;;;7.40;2.35;;;;;;;;;;5051921;28;20039;-61
2023/03/27 07:57:48;;;;;;;7.30;2.33;;;;;;;;;;5063066;28;20136;-61
2023/03/27 08:00:15;;;;;;;6.00;1.65;;;;;;;;;;5069054;28;20028;-61
2023/03/27 08:02:40;;;;;;;9.73;1.70;;;;;;;;;;5074127;28;20028;-61
2023/03/27 08:05:07;;;;;;;4.93;1.60;;;;;;;;;;5073923;28;20020;-61
2023/03/27 08:07:33;;;;;;;6.80;1.50;;;;;;;;;;5076621;28;20025;-62
2023/03/27 08:09:58;;;;;;;3.35;1.40;;;;;;;;;;5077742;28;20066;-61
2023/03/27 08:12:24;;;;;;;4.03;1.75;;;;;;;;;;5073652;28;20028;-61
2023/03/27 08:14:49;;;;;;;2.95;1.50;;;;;;;;;;5044335;28;20032;-62
2023/03/27 08:17:14;;;;;;;3.55;1.80;;;;;;;;;;5040194;28;20103;-61
2023/03/27 08:19:40;;;;;;;5.60;1.60;;;;;;;;;;5047983;28;20020;-60
2023/03/27 08:22:05;;;;;;;3.15;1.38;;;;;;;;;;5073126;28;20025;-61
2023/03/27 08:24:31;;;;;;;3.90;1.55;;;;;;;;;;5078699;28;20030;-61
2023/03/27 08:26:57;;;;;;;3.58;1.17;;;;;;;;;;5084208;28;20024;-61
2023/03/27 08:29:22;;;;;;;4.30;1.40;;;;;;;;;;5076717;28;20020;-61
2023/03/27 08:31:47;;;;;;;3.42;1.58;;;;;;;;;;5067336;28;20028;-60
2023/03/27 08:34:13;;;;;;;6.32;1.13;;;;;;;;;;5046202;28;20051;-61
2023/03/27 08:36:38;;;;;;;5.43;1.58;;;;;;;;;;5077567;28;20036;-60
2023/03/27 08:39:03;;;;;;;3.53;1.25;;;;;;;;;;5082317;28;20598;-61
2023/03/27 08:41:31;;;;;;;6.43;1.67;;;;;;;;;;5073195;28;20040;-61
2023/03/27 08:43:58;;;;;;;3.50;1.48;;;;;;;;;;5062740;28;20070;-61
2023/03/27 08:46:31;;;;;;;5.88;1.75;;;;;;;;;;5039996;28;20031;-60
2023/03/27 08:49:02;;;;;;;9.23;2.20;;;;;;;;;;5045485;28;20016;-61
2023/03/27 08:51:34;;;;;;;3.33;1.48;;;;;;;;;;5029611;28;20017;-61
2023/03/27 08:54:18;;;;;;;6.53;2.08;;;;;;;;;;5038865;28;20020;-61
2023/03/27 08:56:44;;;;;;;3.25;1.58;;;;;;;;;;5039715;28;20017;-61
2023/03/27 08:59:13;;;;;;;7.30;2.53;;;;;;;;;;5036327;28;20432;-61
2023/03/27 09:01:39;;;;;;;3.78;1.40;;;;;;;;;;5039410;28;20163;-61
2023/03/27 09:04:24;;;;;;;6.88;2.03;;;;;;;;;;5040599;28;20015;-61
2023/03/27 09:06:49;;;;;;;6.32;1.90;;;;;;;;;;5042108;28;20028;-61
2023/03/27 09:09:36;;;;;;;7.90;2.15;;;;;;;;;;5053397;28;20096;-61
2023/03/27 09:12:11;;;;;;;5.47;2.20;;;;;;;;;;5002254;28;20040;-61
2023/03/27 09:14:46;;;;;;;3.67;1.63;;;;;;;;;;5040813;28;20944;-61
2023/03/27 09:17:18;;;;;;;11.32;2.42;;;;;;;;;;5035347;28;20066;-61
2023/03/27 09:19:47;;;;;;;6.85;2.28;;;;;;;;;;5041903;28;20026;-61
2023/03/27 09:22:17;;;;;;;6.70;1.88;;;;;;;;;;5037046;28;20024;-61
2023/03/27 09:24:45;;;;;;;5.65;2.50;;;;;;;;;;5066459;28;20025;-61
2023/03/27 09:27:33;;;;;;;8.02;1.95;;;;;;;;;;5082538;28;20020;-62
2023/03/27 09:30:10;;;;;;;7.35;2.28;;;;;;;;;;5058759;28;20041;-61
2023/03/27 09:32:36;;;;;;;3.58;1.75;;;;;;;;;;5071603;28;20029;-61
2023/03/27 09:35:03;;;;;;;8.07;2.55;;;;;;;;;;5072193;28;20052;-61
2023/03/27 09:37:28;;;;;;;11.32;2.00;;;;;;;;;;5071683;28;20052;-62
2023/03/27 09:39:54;;;;;;;7.00;2.22;;;;;;;;;;5071602;28;20029;-61
2023/03/27 09:42:22;;;;;;;7.07;1.83;;;;;;;;;;5072047;28;20024;-61
2023/03/27 09:44:51;;;;;;;7.90;2.00;;;;;;;;;;5069873;28;20023;-61
2023/03/27 09:47:20;;;;;;;9.18;2.53;;;;;;;;;;5076646;28;20040;-61
2023/03/27 09:49:58;;;;;;;8.18;2.13;;;;;;;;;;5036204;28;20848;-61
2023/03/27 09:52:35;;;;;;;5.07;1.67;;;;;;;;;;5033887;28;20028;-61
2023/03/27 09:55:01;;;;;;;6.18;1.83;;;;;;;;;;5034756;28;20028;-61
2023/03/27 09:57:32;;;;;;;6.10;2.10;;;;;;;;;;5032090;28;20047;-62
2023/03/27 10:00:08;;;;;;;5.22;1.73;;;;;;;;;;5030971;28;20020;-62
2023/03/27 10:02:35;;;;;;;6.53;1.88;;;;;;;;;;5034455;28;20020;-61
2023/03/27 10:05:04;;;;;;;7.28;1.60;;;;;;;;;;5051069;28;20043;-62
2023/03/27 10:07:29;;;;;;;7.55;1.65;;;;;;;;;;5044822;28;20025;-62
2023/03/27 10:10:07;;;;;;;4.85;1.48;;;;;;;;;;5043018;28;20102;-61
2023/03/27 10:12:33;;;;;;;6.25;1.23;;;;;;;;;;5030358;28;20027;-61
2023/03/27 10:14:58;;;;;;;4.88;1.65;;;;;;;;;;5042462;28;20032;-62
2023/03/27 10:17:30;;;;;;;9.57;1.50;;;;;;;;;;5075274;28;20036;-62
2023/03/27 10:20:07;;;;;;;3.33;1.25;;;;;;;;;;5084458;28;20033;-61
2023/03/27 10:22:36;;;;;;;6.90;2.08;;;;;;;;;;5073221;28;20502;-61
2023/03/27 10:25:05;;;;;;;3.20;1.13;;;;;;;;;;5075303;28;20442;-61
2023/03/27 10:27:32;;;;;;;6.97;1.67;;;;;;;;;;5077302;28;20529;-62
2023/03/27 10:29:58;;;;;;;4.63;1.90;;;;;;;;;;5071469;28;20043;-62
2023/03/27 10:32:46;;;;;;;8.15;2.15;;;;;;;;;;5071369;28;20119;-62
2023/03/27 10:35:21;;;;;;;6.63;1.30;;;;;;;;;;5070947;28;20061;-61
2023/03/27 10:37:47;;;;;;;5.60;1.02;;;;;;;;;;5073700;28;20028;-62
2023/03/27 10:40:17;;;;;;;2.85;0.73;;;;;;;;;;5076442;28;20181;-61
2023/03/27 10:42:43;;;;;;;1.55;0.57;;;;;;;;;;5081498;28;20020;-61
2023/03/27 10:45:14;;;;;;;2.17;0.70;;;;;;;;;;5073965;28;20024;-61
2023/03/27 10:47:44;;;;;;;7.63;1.00;;;;;;;;;;5071228;28;20058;-61
2023/03/27 10:50:28;;;;;;;2.25;0.85;;;;;;;;;;5071590;28;20082;-61
2023/03/27 10:53:00;;;;;;;2.75;0.93;;;;;;;;;;5046934;28;20606;-61
2023/03/27 10:55:43;;;;;;;3.03;1.10;;;;;;;;;;5040169;28;20747;-62
2023/03/27 10:58:27;;;;;;;7.22;1.15;;;;;;;;;;5038535;28;20523;-61
2023/03/27 11:00:57;;;;;;;2.53;1.05;;;;;;;;;;5060084;28;20043;-61
2023/03/27 11:03:29;;;;;;;3.85;1.65;;;;;;;;;;5046345;28;20020;-61
2023/03/27 11:05:55;;;;;;;2.63;0.98;;;;;;;;;;5032393;28;20074;-61
2023/03/27 11:08:27;;;;;;;3.70;1.15;;;;;;;;;;5043632;28;20024;-61
2023/03/27 11:10:56;;;;;;;5.15;1.40;;;;;;;;;;5037011;28;20133;-61
2023/03/27 11:13:22;;;;;;;4.63;1.30;;;;;;;;;;5052356;28;20139;-61
2023/03/27 11:15:47;;;;;;;8.88;2.15;;;;;;;;;;5047457;28;20032;-61
2023/03/27 11:18:15;;;;;;;4.35;1.30;;;;;;;;;;5057192;28;20056;-61
2023/03/27 11:20:50;;;;;;;5.07;1.77;;;;;;;;;;5046004;28;20127;-61
2023/03/27 11:23:16;;;;;;;4.72;1.70;;;;;;;;;;5042387;28;20035;-62
2023/03/27 11:25:45;;;;;;;5.70;1.15;;;;;;;;;;5048565;28;20021;-61
2023/03/27 11:28:20;;;;;;;6.55;1.45;;;;;;;;;;5070338;28;20028;-61
2023/03/27 11:30:49;;;;;;;4.40;1.17;;;;;;;;;;5057841;28;20992;-61
2023/03/27 11:33:33;;;;;;;4.97;1.30;;;;;;;;;;5057415;28;20036;-61
2023/03/27 11:36:18;;;;;;;5.25;1.15;;;;;;;;;;5073994;28;20538;-62
2023/03/27 11:38:50;;;;;;;6.07;1.58;;;;;;;;;;5074051;28;20083;-62
2023/03/27 11:41:15;;;;;;;8.95;1.33;;;;;;;;;;5082300;28;20020;-62
2023/03/27 11:43:41;;;;;;;4.57;1.20;;;;;;;;;;5079669;28;20501;-61
2023/03/27 11:46:06;;;;;;;4.15;1.20;;;;;;;;;;5081945;28;20021;-62
2023/03/27 11:48:48;;;;;;;4.30;1.33;;;;;;;;;;5073780;28;20032;-62
2023/03/27 11:51:17;;;;;;;9.43;1.27;;;;;;;;;;5086541;28;20024;-62
2023/03/27 11:53:48;;;;;;;2.13;0.80;;;;;;;;;;5074261;28;20043;-61
2023/03/27 11:56:13;;;;;;;8.57;1.05;;;;;;;;;;5086231;28;20040;-62
2023/03/27 11:58:57;;;;;;;2.33;0.93;;;;;;;;;;5074210;28;20560;-62
2023/03/27 12:01:43;;;;;;;2.80;0.98;;;;;;;;;;5086299;28;20364;-62
2023/03/27 12:04:28;;;;;;;5.90;1.02;;;;;;;;;;5074847;28;20032;-62
2023/03/27 12:07:02;;;;;;;4.00;0.90;;;;;;;;;;5062127;28;20067;-62
2023/03/27 12:09:51;;;;;;;2.42;1.00;;;;;;;;;;5077747;28;20532;-63
2023/03/27 12:12:33;;;;;;;5.50;1.48;;;;;;;;;;5064785;28;20111;-63
2023/03/27 12:15:19;;;;;;;3.33;1.10;;;;;;;;;;5076849;28;20032;-62
2023/03/27 12:18:03;;;;;;;2.58;0.85;;;;;;;;;;5060799;28;20139;-63
2023/03/27 12:20:47;;;;;;;3.70;0.93;;;;;;;;;;5069566;28;20043;-62
2023/03/27 12:23:23;;;;;;;3.17;1.27;;;;;;;;;;5071866;28;20945;-63
2023/03/27 12:25:48;;;;;;;4.38;1.27;;;;;;;;;;5081670;28;20453;-62
2023/03/27 12:28:31;;;;;;;4.23;1.60;;;;;;;;;;5071863;28;20021;-63
2023/03/27 12:31:03;;;;;;;4.38;1.10;;;;;;;;;;5077870;28;20281;-63
2023/03/27 12:33:40;;;;;;;3.35;1.52;;;;;;;;;;5073010;28;20047;-63
2023/03/27 12:36:09;;;;;;;2.70;1.25;;;;;;;;;;5072353;28;20016;-63
2023/03/27 12:38:36;;;;;;;6.22;1.63;;;;;;;;;;5072995;28;20024;-63
2023/03/27 12:41:04;;;;;;;4.30;1.15;;;;;;;;;;5071876;28;20034;-63
2023/03/27 12:43:32;;;;;;;2.40;0.73;;;;;;;;;;5089023;28;20028;-62
2023/03/27 12:46:12;;;;;;;3.00;0.88;;;;;;;;;;5072318;28;20036;-64
2023/03/27 12:49:11;;;;;;;4.80;1.00;;;;;;;;;;5040833;28;20077;-61
2023/03/27 12:51:40;;;;;;;3.75;1.00;;;;;;;;;;5014795;28;20449;-62
2023/03/27 12:54:18;;;;;;;1.95;0.70;;;;;;;;;;5071871;28;20033;-62
2023/03/27 12:56:47;;;;;;;1.58;0.65;;;;;;;;;;5074614;28;20024;-61
2023/03/27 12:59:22;;;;;;;2.88;1.17;;;;;;;;;;5079974;28;20040;-62
2023/03/27 13:01:48;;;;;;;6.88;0.93;;;;;;;;;;5078560;28;20024;-62
2023/03/27 13:04:31;;;;;;;3.35;1.08;;;;;;;;;;5083974;28;20039;-61
2023/03/27 13:06:56;;;;;;;3.88;1.35;;;;;;;;;;5079014;28;20028;-62
2023/03/27 13:09:28;;;;;;;5.60;1.35;;;;;;;;;;5062602;28;20052;-63
2023/03/27 13:11:53;;;;;;;6.35;1.60;;;;;;;;;;5048693;28;20058;-62
2023/03/27 13:14:34;;;;;;;3.83;1.33;;;;;;;;;;5050498;28;20135;-66
2023/03/27 13:17:00;;;;;;;5.68;1.27;;;;;;;;;;5045773;28;20409;-61
2023/03/27 13:19:38;;;;;;;2.75;0.88;;;;;;;;;;5044560;28;20802;-62
2023/03/27 13:22:06;;;;;;;8.07;1.00;;;;;;;;;;5085628;28;20027;-63
2023/03/27 13:24:56;;;;;;;2.95;1.30;;;;;;;;;;5083278;28;20056;-62
2023/03/27 13:27:37;;;;;;;2.63;1.05;;;;;;;;;;5073878;28;20498;-62
2023/03/27 13:30:03;;;;;;;4.47;1.02;;;;;;;;;;5072680;28;20040;-63
2023/03/27 13:32:32;;;;;;;3.35;0.93;;;;;;;;;;5076035;28;20093;-62
2023/03/27 13:35:00;;;;;;;4.97;1.58;;;;;;;;;;5063828;28;20926;-62
2023/03/27 13:37:25;;;;;;;8.45;1.42;;;;;;;;;;5035822;28;20028;-62
2023/03/27 13:40:09;;;;;;;2.97;1.35;;;;;;;;;;5036070;28;20086;-62
2023/03/27 13:42:43;;;;;;;3.10;1.40;;;;;;;;;;5047251;28;20041;-62
2023/03/27 13:45:27;;;;;;;3.55;1.45;;;;;;;;;;5054331;28;20031;-62
2023/03/27 13:47:58;;;;;;;3.08;1.20;;;;;;;;;;5076641;28;20024;-61
2023/03/27 13:50:26;;;;;;;3.03;1.17;;;;;;;;;;5089571;28;20127;-62
2023/03/27 13:53:11;;;;;;;3.55;1.33;;;;;;;;;;5079652;28;20119;-62
2023/03/27 13:55:52;;;;;;;5.28;1.17;;;;;;;;;;5073577;28;20501;-62
2023/03/27 13:58:17;;;;;;;1.90;1.00;;;;;;;;;;5077046;28;20395;-61
2023/03/27 14:00:48;;;;;;;4.75;1.60;;;;;;;;;;5071594;28;20025;-61
2023/03/27 14:03:31;;;;;;;2.47;0.90;;;;;;;;;;5075182;28;20023;-62
2023/03/27 14:05:59;;;;;;;1.95;0.90;;;;;;;;;;5080376;28;20020;-62
2023/03/27 14:08:25;;;;;;;3.22;1.15;;;;;;;;;;5074437;28;20085;-62
2023/03/27 14:11:06;;;;;;;2.97;1.02;;;;;;;;;;5039175;28;20020;-62
2023/03/27 14:13:49;;;;;;;7.25;1.50;;;;;;;;;;5034621;28;20032;-60
2023/03/27 14:16:33;;;;;;;3.95;1.20;;;;;;;;;;5039479;28;20070;-64
2023/03/27 14:19:04;;;;;;;4.78;1.60;;;;;;;;;;5032385;28;20052;-63
2023/03/27 14:21:48;;;;;;;3.85;1.58;;;;;;;;;;5075854;28;20027;-66
2023/03/27 14:24:32;;;;;;;2.40;1.00;;;;;;;;;;5040214;28;21017;-65
2023/03/27 14:26:58;;;;;;;3.35;1.15;;;;;;;;;;5038573;28;20028;-67
2023/03/27 14:29:23;;;;;;;3.67;1.48;;;;;;;;;;5034195;28;20090;-64
2023/03/27 14:31:49;;;;;;;3.42;1.55;;;;;;;;;;5062537;28;20028;-65
2023/03/27 14:34:21;;;;;;;4.70;1.70;;;;;;;;;;5077325;28;20069;-65
2023/03/27 14:36:48;;;;;;;2.67;1.02;;;;;;;;;;5071677;28;20111;-65
2023/03/27 14:39:15;;;;;;;8.55;1.60;;;;;;;;;;5072340;28;20028;-66
2023/03/27 14:41:50;;;;;;;3.42;1.23;;;;;;;;;;5082398;28;20027;-65
2023/03/27 14:44:16;;;;;;;4.63;1.65;;;;;;;;;;5080933;28;20056;-62
2023/03/27 14:46:43;;;;;;;3.35;1.15;;;;;;;;;;5070410;28;20064;-65
2023/03/27 14:49:12;;;;;;;3.08;1.35;;;;;;;;;;5073436;28;20048;-61
2023/03/27 14:51:40;;;;;;;4.78;1.23;;;;;;;;;;5052019;28;20030;-63
2023/03/27 14:54:09;;;;;;;3.90;1.50;;;;;;;;;;5035260;28;20020;-62